createdAt,value
2022-08-17T04:12:49.513Z,19.45
2022-08-17T04:15:52.025Z,19.47
2022-08-17T04:18:54.201Z,19.51
2022-08-17T04:25:02.486Z,19.47
2022-08-17T04:28:09.434Z,19.40
2022-08-17T04:31:18.233Z,19.50
2022-08-17T04:34:21.082Z,19.63
2022-08-17T04:37:23.490Z,19.59
2022-08-17T04:40:46.176Z,19.64
2022-08-17T04:43:50.100Z,19.61
2022-08-17T04:46:52.466Z,19.78
2022-08-17T04:49:54.525Z,19.73
2022-08-17T04:52:57.219Z,19.81
2022-08-17T04:55:59.534Z,19.86
2022-08-17T04:59:06.486Z,20.04
2022-08-17T05:02:08.579Z,20.22
2022-08-17T05:05:10.995Z,20.16
2022-08-17T05:08:17.063Z,20.31
2022-08-17T05:11:19.526Z,20.44
2022-08-17T05:14:22.207Z,20.54
2022-08-17T05:17:35.601Z,20.65
2022-08-17T05:20:39.721Z,20.80
2022-08-17T05:23:43.476Z,20.92
2022-08-17T05:26:46.021Z,21.03
2022-08-17T05:29:48.377Z,21.09
2022-08-17T05:33:14.942Z,21.23
2022-08-17T05:36:37.889Z,21.25
2022-08-17T05:39:39.548Z,21.39
2022-08-17T05:42:42.253Z,21.47
2022-08-17T05:46:15.115Z,21.56
2022-08-17T05:49:25.126Z,21.66
2022-08-17T05:52:50.090Z,21.82
2022-08-17T05:56:09.098Z,21.88
2022-08-17T05:59:40.063Z,22.00
2022-08-17T06:03:11.678Z,22.10
2022-08-17T06:06:32.326Z,22.26
2022-08-17T06:09:57.062Z,22.37
2022-08-17T06:13:22.606Z,22.48
2022-08-17T06:16:34.462Z,22.56
2022-08-17T06:19:45.672Z,22.67
2022-08-17T06:22:50.781Z,22.78
2022-08-17T06:25:58.597Z,22.90
2022-08-17T06:29:18.653Z,23.01
2022-08-17T06:32:21.677Z,23.12
2022-08-17T06:35:34.566Z,23.27
2022-08-17T06:39:07.904Z,23.40
2022-08-17T06:43:02.752Z,23.52
2022-08-17T06:45:57.430Z,23.68
2022-08-17T06:49:08.438Z,23.99
2022-08-17T06:52:45.932Z,24.27
2022-08-17T06:56:12.816Z,24.29
2022-08-17T06:59:19.618Z,24.43
2022-08-17T07:02:59.499Z,24.59
2022-08-17T07:06:08.582Z,24.64
2022-08-17T07:09:34.745Z,24.69
2022-08-17T07:12:40.487Z,24.80
2022-08-17T07:15:43.170Z,24.87
2022-08-17T07:18:46.659Z,24.96
2022-08-17T07:22:15.701Z,25.07
2022-08-17T07:25:18.610Z,25.21
2022-08-17T07:28:23.482Z,25.36
2022-08-17T07:31:26.585Z,25.52
2022-08-17T07:34:29.206Z,25.60
2022-08-17T07:37:33.249Z,25.72
2022-08-17T07:40:38.852Z,25.85
2022-08-17T07:43:41.135Z,25.97
2022-08-17T07:47:10.944Z,26.00
2022-08-17T07:50:28.889Z,26.09
2022-08-17T07:53:31.891Z,26.14
2022-08-17T07:56:42.092Z,26.17
2022-08-17T08:00:18.320Z,26.23
2022-08-17T08:03:27.141Z,26.45
2022-08-17T08:06:30.583Z,26.54
2022-08-17T08:09:45.115Z,26.61
2022-08-17T08:12:48.869Z,26.76
2022-08-17T08:16:23.790Z,26.89
2022-08-17T08:19:27.871Z,27.11
2022-08-17T08:22:41.070Z,27.20
2022-08-17T08:26:08.574Z,27.31
2022-08-17T08:29:20.270Z,27.42
2022-08-17T08:32:39.347Z,27.50
2022-08-17T08:35:58.942Z,27.59
2022-08-17T08:39:06.813Z,27.68
2022-08-17T08:42:24.163Z,27.66
2022-08-17T08:45:38.417Z,27.77
2022-08-17T08:48:58.044Z,27.85
2022-08-17T08:52:03.344Z,28.08
2022-08-17T08:55:26.434Z,28.20
2022-08-17T08:59:03.012Z,28.37
2022-08-17T09:02:34.946Z,28.36
2022-08-17T09:06:06.065Z,28.51
2022-08-17T09:10:08.205Z,28.67
2022-08-17T09:13:19.614Z,28.83
2022-08-17T09:16:36.750Z,28.95
2022-08-17T09:19:53.516Z,29.13
2022-08-17T09:23:08.470Z,29.24
2022-08-17T09:26:25.832Z,29.39
2022-08-17T09:29:34.824Z,29.56
2022-08-17T09:32:41.405Z,29.62
2022-08-17T09:35:49.588Z,29.75
2022-08-17T09:39:03.896Z,29.88
2022-08-17T09:42:19.934Z,30.01
2022-08-17T09:45:34.126Z,30.09
2022-08-17T09:48:43.526Z,30.28
2022-08-17T09:51:55.490Z,30.26
2022-08-17T09:54:59.994Z,30.20
2022-08-17T09:58:29.262Z,30.24
2022-08-17T10:01:52.479Z,30.51
2022-08-17T10:05:24.666Z,30.42
2022-08-17T10:08:44.355Z,30.04
2022-08-17T10:12:20.026Z,29.86
2022-08-17T10:15:55.834Z,29.89
2022-08-17T10:19:13.755Z,30.04
